Time;durP1;ratioP1;P1;durP2;ratioP2;P2;SDS_P1;SDS_P2;PMS_P1;PMS_P2;Temp;Humidity;BMP_temperature;BMP_pressure;BME280_temperature;BME280_humidity;BME280_pressure;Samples;Min_cycle;Max_cycle;Signal;HPM_P1;HPM_P2
2024/01/28 00:00:53;;;;;;;4.38;2.90;;;22.60;29.40;;;;;;5074818;28;20198;-55
2024/01/28 00:03:20;;;;;;;4.65;3.25;;;22.60;29.40;;;;;;5074897;28;20225;-56
2024/01/28 00:05:48;;;;;;;6.38;2.90;;;22.60;29.20;;;;;;5074401;28;20244;-55
2024/01/28 00:08:15;;;;;;;4.57;2.63;;;22.60;29.10;;;;;;5074575;28;20215;-57
2024/01/28 00:10:43;;;;;;;4.25;2.67;;;22.70;29.10;;;;;;5074319;28;20287;-54
2024/01/28 00:13:10;;;;;;;3.92;2.45;;;22.60;28.90;;;;;;5074058;28;20568;-55
2024/01/28 00:15:37;;;;;;;4.43;2.90;;;22.60;29.10;;;;;;5074061;28;20708;-56
2024/01/28 00:18:04;;;;;;;3.65;2.50;;;22.60;29.20;;;;;;5074616;28;20215;-56
2024/01/28 00:20:30;;;;;;;3.60;2.40;;;22.50;29.20;;;;;;5074353;28;20214;-54
2024/01/28 00:22:57;;;;;;;4.07;2.42;;;22.50;29.30;;;;;;5074330;28;20245;-53
2024/01/28 00:25:24;;;;;;;5.28;2.90;;;22.50;29.40;;;;;;5074399;28;20198;-55
2024/01/28 00:27:52;;;;;;;6.20;2.95;;;22.40;29.30;;;;;;5073952;28;20246;-55
2024/01/28 00:30:19;;;;;;;4.60;2.42;;;22.40;29.40;;;;;;5074299;28;20189;-54
2024/01/28 00:32:46;;;;;;;3.70;2.33;;;22.40;29.50;;;;;;5074093;28;20234;-57
2024/01/28 00:35:13;;;;;;;5.85;2.50;;;22.30;29.40;;;;;;5073828;28;20278;-55
2024/01/28 00:37:40;;;;;;;5.53;2.40;;;22.40;29.40;;;;;;5073550;28;20306;-49
2024/01/28 00:40:09;;;;;;;3.80;2.53;;;22.40;29.40;;;;;;5074126;28;20198;-56
2024/01/28 00:42:36;;;;;;;3.47;2.60;;;22.40;29.40;;;;;;5073759;28;20214;-54
2024/01/28 00:45:05;;;;;;;4.72;2.75;;;22.40;29.40;;;;;;5073895;28;20193;-53
2024/01/28 00:47:32;;;;;;;4.30;2.63;;;22.40;29.40;;;;;;5073874;28;20221;-56
2024/01/28 00:49:58;;;;;;;3.45;2.35;;;22.40;29.90;;;;;;5073485;28;20277;-55
2024/01/28 00:52:25;;;;;;;7.07;2.72;;;22.40;29.30;;;;;;5073754;28;20309;-56
2024/01/28 00:54:52;;;;;;;5.10;2.63;;;22.40;29.30;;;;;;5073447;28;20643;-51
2024/01/28 00:57:19;;;;;;;3.38;2.13;;;22.50;29.30;;;;;;5072936;28;20644;-56
2024/01/28 00:59:46;;;;;;;3.95;2.42;;;22.50;29.30;;;;;;5073862;28;20305;-53
2024/01/28 01:02:14;;;;;;;4.75;2.70;;;22.50;29.30;;;;;;5073625;28;20274;-52
2024/01/28 01:04:41;;;;;;;4.47;2.42;;;22.50;29.20;;;;;;5073017;28;20722;-54
2024/01/28 01:07:08;;;;;;;4.80;2.45;;;22.50;29.20;;;;;;5073471;28;20293;-55
2024/01/28 01:09:35;;;;;;;3.80;2.55;;;22.60;29.20;;;;;;5073730;28;20301;-54
2024/01/28 01:12:04;;;;;;;4.93;2.72;;;22.50;29.10;;;;;;5072925;28;20232;-55
2024/01/28 01:14:35;;;;;;;4.03;2.35;;;22.60;29.00;;;;;;5073603;28;20223;-53
2024/01/28 01:17:02;;;;;;;3.72;2.50;;;22.60;29.50;;;;;;5073148;28;20237;-53
2024/01/28 01:19:30;;;;;;;3.13;2.30;;;22.60;28.90;;;;;;5071784;28;20313;-54
2024/01/28 01:21:57;;;;;;;4.40;2.33;;;22.50;29.40;;;;;;5072792;28;20285;-53
2024/01/28 01:24:24;;;;;;;3.53;2.30;;;22.50;29.00;;;;;;5072957;28;20219;-55
2024/01/28 01:26:51;;;;;;;5.47;2.70;;;22.40;29.10;;;;;;5072791;28;20648;-54
2024/01/28 01:29:18;;;;;;;3.80;2.28;;;22.40;29.10;;;;;;5073072;28;20253;-56
2024/01/28 01:31:45;;;;;;;3.40;2.22;;;22.30;29.20;;;;;;5073007;28;20214;-57
2024/01/28 01:34:12;;;;;;;3.53;2.00;;;22.30;29.20;;;;;;5072377;28;20703;-53
2024/01/28 01:36:43;;;;;;;4.57;2.40;;;22.30;29.30;;;;;;5073227;28;20191;-55
2024/01/28 01:39:10;;;;;;;4.80;2.33;;;22.30;29.30;;;;;;5072614;28;20726;-56
2024/01/28 01:41:37;;;;;;;4.18;2.47;;;22.40;29.30;;;;;;5072211;28;20728;-53
2024/01/28 01:44:03;;;;;;;4.50;2.55;;;22.40;29.30;;;;;;5072688;28;20317;-55
2024/01/28 01:46:32;;;;;;;3.55;2.00;;;22.40;29.20;;;;;;5072489;28;20668;-53
2024/01/28 01:48:59;;;;;;;4.47;2.40;;;22.40;29.80;;;;;;5071523;28;20253;-53
2024/01/28 01:51:26;;;;;;;5.10;2.58;;;22.40;29.20;;;;;;5072459;28;20215;-55
2024/01/28 01:53:56;;;;;;;3.53;1.92;;;22.40;29.20;;;;;;5072562;28;20221;-56
2024/01/28 01:56:24;;;;;;;3.97;2.33;;;22.40;29.20;;;;;;5072299;28;20807;-57
2024/01/28 01:58:53;;;;;;;3.80;2.17;;;22.40;29.20;;;;;;5072667;28;20219;-51
2024/01/28 02:01:20;;;;;;;3.75;2.10;;;22.50;29.20;;;;;;5072603;28;20197;-55
2024/01/28 02:03:47;;;;;;;3.47;2.03;;;22.40;29.10;;;;;;5072412;28;20345;-51
2024/01/28 02:06:16;;;;;;;3.83;2.40;;;22.50;29.10;;;;;;5072263;28;20623;-55
2024/01/28 02:08:43;;;;;;;4.80;2.50;;;22.50;29.00;;;;;;5072521;28;20277;-55
2024/01/28 02:11:12;;;;;;;3.60;2.00;;;22.50;28.90;;;;;;5071751;28;20229;-54
2024/01/28 02:13:39;;;;;;;2.80;2.00;;;22.50;28.90;;;;;;5072571;28;20293;-56
2024/01/28 02:16:06;;;;;;;3.63;2.20;;;22.50;28.80;;;;;;5072205;28;20219;-53
2024/01/28 02:18:33;;;;;;;4.13;2.30;;;22.60;28.90;;;;;;5072233;28;20301;-55
2024/01/28 02:21:00;;;;;;;3.38;2.03;;;22.50;28.90;;;;;;5072406;28;20301;-54
2024/01/28 02:23:28;;;;;;;3.90;2.00;;;22.50;28.80;;;;;;5072583;28;20322;-54
2024/01/28 02:25:55;;;;;;;3.50;2.10;;;22.50;28.80;;;;;;5071688;28;20576;-58
2024/01/28 02:28:22;;;;;;;3.67;2.08;;;22.50;28.80;;;;;;5072032;28;20790;-55
2024/01/28 02:30:49;;;;;;;2.97;1.90;;;22.40;28.80;;;;;;5071995;28;20190;-54
2024/01/28 02:33:16;;;;;;;5.30;2.50;;;22.40;28.90;;;;;;5071835;28;20329;-53
2024/01/28 02:35:43;;;;;;;3.25;2.03;;;22.30;28.90;;;;;;5071987;28;20731;-57
2024/01/28 02:38:11;;;;;;;3.97;2.03;;;22.30;29.00;;;;;;5072071;28;20214;-57
2024/01/28 02:40:39;;;;;;;3.70;1.95;;;22.30;29.10;;;;;;5071902;28;20215;-57
2024/01/28 02:43:07;;;;;;;2.47;1.95;;;22.30;29.10;;;;;;5072142;28;20302;-52
2024/01/28 02:45:34;;;;;;;3.80;2.35;;;22.30;29.10;;;;;;5072114;28;20198;-53
2024/01/28 02:48:01;;;;;;;3.30;2.13;;;22.30;29.10;;;;;;5071985;28;20225;-54
2024/01/28 02:50:27;;;;;;;2.97;1.92;;;22.30;29.00;;;;;;5072100;28;20217;-57
2024/01/28 02:52:54;;;;;;;3.72;1.95;;;22.30;29.00;;;;;;5071585;28;20235;-54
2024/01/28 02:55:23;;;;;;;3.58;2.05;;;22.40;29.00;;;;;;5071635;28;20273;-55
2024/01/28 02:57:51;;;;;;;2.30;1.73;;;22.40;29.00;;;;;;5071886;28;20191;-56
2024/01/28 03:00:18;;;;;;;2.88;1.83;;;22.40;28.90;;;;;;5073048;28;20195;-56
2024/01/28 03:02:45;;;;;;;3.15;2.00;;;22.40;28.80;;;;;;5075274;28;20282;-51
2024/01/28 03:05:13;;;;;;;4.05;2.28;;;22.40;28.80;;;;;;5075891;28;20613;-55
2024/01/28 03:07:40;;;;;;;3.72;2.33;;;22.40;29.30;;;;;;5075380;28;20647;-52
2024/01/28 03:10:08;;;;;;;3.17;1.80;;;22.40;28.80;;;;;;5075466;28;20614;-51
2024/01/28 03:12:35;;;;;;;3.53;2.13;;;22.50;28.80;;;;;;5075611;28;20268;-56
2024/01/28 03:15:05;;;;;;;2.58;1.90;;;22.40;28.80;;;;;;5075651;28;20215;-56
2024/01/28 03:17:32;;;;;;;3.10;1.90;;;22.50;28.80;;;;;;5074937;28;20765;-56
2024/01/28 03:19:59;;;;;;;2.65;1.85;;;22.50;28.80;;;;;;5075606;28;20207;-54
2024/01/28 03:22:26;;;;;;;2.17;1.63;;;22.50;28.80;;;;;;5075611;28;20190;-56
2024/01/28 03:24:53;;;;;;;2.15;1.70;;;22.50;28.90;;;;;;5075001;28;20305;-53
2024/01/28 03:27:19;;;;;;;3.45;1.77;;;22.50;28.80;;;;;;5075179;28;20289;-54
2024/01/28 03:29:46;;;;;;;2.40;1.77;;;22.50;28.80;;;;;;5075890;28;20218;-56
2024/01/28 03:32:14;;;;;;;3.40;2.00;;;22.50;28.80;;;;;;5075056;28;20221;-55
2024/01/28 03:34:41;;;;;;;2.55;1.63;;;22.40;28.80;;;;;;5075178;28;20699;-55
2024/01/28 03:37:08;;;;;;;3.75;1.80;;;22.40;28.80;;;;;;5075257;28;20214;-56
2024/01/28 03:39:35;;;;;;;3.20;2.30;;;22.30;28.70;;;;;;5074683;28;20787;-57
2024/01/28 03:42:03;;;;;;;3.33;1.95;;;22.30;28.70;;;;;;5074789;28;20560;-55
2024/01/28 03:44:30;;;;;;;3.10;1.75;;;22.30;28.80;;;;;;5075321;28;20281;-54
2024/01/28 03:46:58;;;;;;;4.25;1.98;;;22.30;28.70;;;;;;5075024;28;20215;-57
2024/01/28 03:49:27;;;;;;;4.82;2.22;;;22.30;28.80;;;;;;5074975;28;20272;-50
2024/01/28 03:51:54;;;;;;;2.40;1.67;;;22.30;28.70;;;;;;5074714;28;20187;-54
2024/01/28 03:54:21;;;;;;;3.63;1.77;;;22.30;28.70;;;;;;5074579;28;20215;-52
2024/01/28 03:56:47;;;;;;;4.75;1.90;;;22.40;28.80;;;;;;5074738;28;20282;-58
2024/01/28 03:59:14;;;;;;;3.50;1.88;;;22.40;28.80;;;;;;5074992;28;20218;-54
2024/01/28 04:01:41;;;;;;;2.35;1.77;;;22.40;28.80;;;;;;5074600;28;20223;-56
2024/01/28 04:04:08;;;;;;;2.50;1.65;;;22.40;29.40;;;;;;5074254;28;20222;-53
2024/01/28 04:06:43;;;;;;;3.20;1.75;;;22.40;28.80;;;;;;5074471;28;20187;-55
2024/01/28 04:09:10;;;;;;;3.42;1.92;;;22.40;28.80;;;;;;5074600;28;20249;-56
2024/01/28 04:11:37;;;;;;;3.88;2.03;;;22.40;28.80;;;;;;5073739;28;20187;-55
2024/01/28 04:14:04;;;;;;;2.63;1.70;;;22.40;28.80;;;;;;5074755;28;20643;-51
2024/01/28 04:16:32;;;;;;;3.05;1.70;;;22.40;28.80;;;;;;5074115;28;20313;-54
2024/01/28 04:18:59;;;;;;;3.10;1.73;;;22.40;28.80;;;;;;5074520;28;20582;-56
2024/01/28 04:21:28;;;;;;;3.10;1.65;;;22.50;28.80;;;;;;5074140;28;20728;-55
2024/01/28 04:23:57;;;;;;;3.13;1.70;;;22.50;28.80;;;;;;5074379;28;20210;-52
2024/01/28 04:26:24;;;;;;;2.97;1.90;;;22.50;28.90;;;;;;5074179;28;20214;-55
2024/01/28 04:28:51;;;;;;;2.33;1.52;;;22.50;28.80;;;;;;5074398;28;20241;-54
2024/01/28 04:31:19;;;;;;;2.95;1.90;;;22.50;28.80;;;;;;5074011;28;20629;-55
2024/01/28 04:33:46;;;;;;;3.22;1.80;;;22.50;28.80;;;;;;5073811;28;20239;-52
2024/01/28 04:36:13;;;;;;;3.00;1.83;;;22.40;29.30;;;;;;5074158;28;20277;-52
2024/01/28 04:38:40;;;;;;;2.67;1.70;;;22.40;28.80;;;;;;5073664;28;20261;-54
2024/01/28 04:41:08;;;;;;;3.40;2.00;;;22.40;28.80;;;;;;5073725;28;20278;-53
2024/01/28 04:43:38;;;;;;;3.55;1.95;;;22.30;28.70;;;;;;5073823;28;20734;-54
2024/01/28 04:46:05;;;;;;;3.42;1.75;;;22.30;28.70;;;;;;5073753;28;20285;-54
2024/01/28 04:48:32;;;;;;;2.83;1.92;;;22.30;28.70;;;;;;5073526;28;20221;-55
2024/01/28 04:50:59;;;;;;;2.95;1.63;;;22.30;28.80;;;;;;5073895;28;20296;-52
2024/01/28 04:53:25;;;;;;;3.28;1.67;;;22.30;28.80;;;;;;5073735;28;20453;-56
2024/01/28 04:55:52;;;;;;;2.50;1.63;;;22.30;28.70;;;;;;5073742;28;20599;-56
2024/01/28 04:58:20;;;;;;;3.60;1.75;;;22.30;28.80;;;;;;5073416;28;20301;-53
2024/01/28 05:00:47;;;;;;;3.55;1.70;;;22.40;28.80;;;;;;5073391;28;20278;-54
2024/01/28 05:03:14;;;;;;;3.45;1.70;;;22.30;28.70;;;;;;5072908;28;20214;-55
2024/01/28 05:05:41;;;;;;;2.60;1.70;;;22.30;28.70;;;;;;5073617;28;20195;-52
2024/01/28 05:08:09;;;;;;;3.05;1.60;;;22.30;28.70;;;;;;5073459;28;20225;-57
2024/01/28 05:10:35;;;;;;;2.83;1.63;;;22.40;28.80;;;;;;5072828;28;20202;-55
2024/01/28 05:13:02;;;;;;;2.00;1.65;;;22.40;28.80;;;;;;5073089;28;20250;-56
2024/01/28 05:15:31;;;;;;;2.90;1.73;;;22.40;28.80;;;;;;5073222;28;20230;-55
2024/01/28 05:17:58;;;;;;;2.60;1.67;;;22.40;28.80;;;;;;5072939;28;20198;-54
2024/01/28 05:20:24;;;;;;;2.55;1.60;;;22.40;28.80;;;;;;5073605;28;20198;-57
2024/01/28 05:22:52;;;;;;;4.18;2.10;;;22.40;28.80;;;;;;5073127;28;20281;-54
2024/01/28 05:25:19;;;;;;;2.22;1.60;;;22.40;28.80;;;;;;5072577;28;20190;-54
2024/01/28 05:27:45;;;;;;;2.78;1.60;;;22.40;28.80;;;;;;5073082;28;20282;-56
2024/01/28 05:30:12;;;;;;;3.53;1.83;;;22.40;28.80;;;;;;5073423;28;20187;-55
2024/01/28 05:32:41;;;;;;;3.05;1.80;;;22.40;28.80;;;;;;5072371;28;20586;-56
2024/01/28 05:35:08;;;;;;;2.33;1.70;;;22.40;28.80;;;;;;5073017;28;20306;-55
2024/01/28 05:37:36;;;;;;;3.00;1.98;;;22.40;28.80;;;;;;5072973;28;20183;-56
2024/01/28 05:40:04;;;;;;;2.63;1.50;;;22.40;28.80;;;;;;5072187;28;20218;-53
2024/01/28 05:42:31;;;;;;;2.25;1.70;;;22.30;28.80;;;;;;5072930;28;20625;-55
2024/01/28 05:44:58;;;;;;;3.22;1.83;;;22.30;28.70;;;;;;5073031;28;20215;-55
2024/01/28 05:47:25;;;;;;;2.35;1.60;;;22.30;28.70;;;;;;5072421;28;20282;-56
2024/01/28 05:49:53;;;;;;;2.40;1.70;;;22.30;28.70;;;;;;5072964;28;20310;-54
2024/01/28 05:52:20;;;;;;;1.90;1.40;;;22.30;28.70;;;;;;5072678;28;20187;-55
2024/01/28 05:54:47;;;;;;;3.55;1.70;;;22.30;28.70;;;;;;5072262;28;20305;-56
2024/01/28 05:57:14;;;;;;;2.60;1.50;;;22.30;28.70;;;;;;5072620;28;20214;-56
2024/01/28 05:59:41;;;;;;;3.25;1.65;;;22.30;28.80;;;;;;5072288;28;20215;-52
2024/01/28 06:02:07;;;;;;;2.45;1.50;;;22.30;28.70;;;;;;5072011;28;20281;-55
2024/01/28 06:04:35;;;;;;;3.47;1.30;;;22.30;28.70;;;;;;5072704;28;20214;-54
2024/01/28 06:07:03;;;;;;;2.42;1.60;;;22.30;28.80;;;;;;5072187;28;20198;-54
2024/01/28 06:09:31;;;;;;;2.80;1.63;;;22.30;28.70;;;;;;5072157;28;20233;-53
2024/01/28 06:11:57;;;;;;;1.77;1.33;;;22.40;28.80;;;;;;5072505;28;20190;-53
2024/01/28 06:14:25;;;;;;;2.92;1.63;;;22.30;28.70;;;;;;5072158;28;20261;-52
2024/01/28 06:16:52;;;;;;;2.53;1.40;;;22.40;28.80;;;;;;5071974;28;20611;-54
2024/01/28 06:19:19;;;;;;;2.55;1.50;;;22.40;28.80;;;;;;5072351;28;20221;-55
2024/01/28 06:21:46;;;;;;;2.15;1.42;;;22.40;28.80;;;;;;5072040;28;20663;-55
2024/01/28 06:24:14;;;;;;;1.60;1.35;;;22.40;28.80;;;;;;5071878;28;20222;-55
2024/01/28 06:26:41;;;;;;;2.33;1.38;;;22.40;28.80;;;;;;5072304;28;20282;-55
2024/01/28 06:29:08;;;;;;;2.38;1.25;;;22.40;28.80;;;;;;5072379;28;20214;-52
2024/01/28 06:31:35;;;;;;;2.33;1.25;;;22.40;28.80;;;;;;5071963;28;20281;-54
2024/01/28 06:34:01;;;;;;;3.42;1.52;;;22.50;28.90;;;;;;5072053;28;20238;-56
2024/01/28 06:36:29;;;;;;;2.58;1.40;;;22.40;28.80;;;;;;5078187;28;20193;-56
2024/01/28 06:38:56;;;;;;;2.75;1.42;;;22.40;28.80;;;;;;5078224;28;20229;-55
2024/01/28 06:41:24;;;;;;;2.90;1.50;;;22.30;28.70;;;;;;5078854;28;20194;-52
2024/01/28 06:43:52;;;;;;;2.25;1.30;;;22.30;28.70;;;;;;5078637;28;20313;-54
2024/01/28 06:46:19;;;;;;;2.33;1.30;;;22.30;28.70;;;;;;5078435;28;20193;-54
2024/01/28 06:48:46;;;;;;;2.30;1.40;;;22.20;28.70;;;;;;5078541;28;20218;-53
2024/01/28 06:51:13;;;;;;;2.33;1.27;;;22.20;28.80;;;;;;5078785;28;20197;-56
2024/01/28 06:53:40;;;;;;;2.17;1.55;;;22.30;28.80;;;;;;5077926;28;20263;-55
2024/01/28 06:56:07;;;;;;;3.03;1.27;;;22.20;28.70;;;;;;5078824;28;20281;-56
2024/01/28 06:58:36;;;;;;;1.67;1.30;;;22.30;28.80;;;;;;5078367;28;20757;-54
2024/01/28 07:01:03;;;;;;;2.10;1.38;;;22.30;28.80;;;;;;5078071;28;20570;-53
2024/01/28 07:03:30;;;;;;;1.83;1.35;;;22.30;28.80;;;;;;5078702;28;20210;-54
2024/01/28 07:05:57;;;;;;;1.80;1.35;;;22.30;28.80;;;;;;5078301;28;20645;-54
2024/01/28 07:08:24;;;;;;;2.35;1.50;;;22.30;28.80;;;;;;5077892;28;20717;-53
2024/01/28 07:10:51;;;;;;;1.65;1.13;;;22.30;28.80;;;;;;5078618;28;20222;-57
2024/01/28 07:13:17;;;;;;;1.83;1.13;;;22.30;28.70;;;;;;5078519;28;20238;-52
2024/01/28 07:15:46;;;;;;;2.92;1.30;;;22.30;28.70;;;;;;5078002;28;20261;-52
2024/01/28 07:18:14;;;;;;;2.05;1.30;;;22.30;28.70;;;;;;5078727;28;20206;-54
2024/01/28 07:20:40;;;;;;;1.95;1.20;;;22.30;28.80;;;;;;5078683;28;20217;-56
2024/01/28 07:23:07;;;;;;;1.65;1.30;;;22.40;28.80;;;;;;5077959;28;20199;-54
2024/01/28 07:25:34;;;;;;;1.95;1.20;;;22.40;28.80;;;;;;5078739;28;20281;-53
2024/01/28 07:28:01;;;;;;;1.90;1.30;;;22.40;28.80;;;;;;5078359;28;20198;-53
2024/01/28 07:30:28;;;;;;;1.70;1.20;;;22.40;28.80;;;;;;5078158;28;20278;-55
2024/01/28 07:32:56;;;;;;;2.13;1.20;;;22.40;29.30;;;;;;5078360;28;20187;-57
2024/01/28 07:35:23;;;;;;;2.13;1.10;;;22.40;28.80;;;;;;5078384;28;20313;-54
2024/01/28 07:37:50;;;;;;;2.63;1.42;;;22.40;28.80;;;;;;5077626;28;20558;-55
2024/01/28 07:40:17;;;;;;;2.05;1.40;;;22.40;28.80;;;;;;5078600;28;20305;-53
2024/01/28 07:42:44;;;;;;;1.90;1.30;;;22.40;28.80;;;;;;5078318;28;20186;-54
2024/01/28 07:45:11;;;;;;;2.35;1.48;;;22.30;28.80;;;;;;5077844;28;20249;-54
2024/01/28 07:47:39;;;;;;;3.05;1.30;;;22.30;28.70;;;;;;5074294;28;20278;-55
2024/01/28 07:50:08;;;;;;;2.85;1.25;;;22.20;28.70;;;;;;5075533;28;20218;-52
2024/01/28 07:52:35;;;;;;;1.45;1.20;;;22.30;28.80;;;;;;5074739;28;20198;-54
2024/01/28 07:55:02;;;;;;;1.73;1.40;;;22.30;28.80;;;;;;5074789;28;20237;-55
2024/01/28 07:57:29;;;;;;;1.77;1.30;;;22.30;28.70;;;;;;5074884;28;20252;-54
2024/01/28 07:59:56;;;;;;;2.35;1.42;;;22.30;28.80;;;;;;5074718;28;20225;-57
2024/01/28 08:02:23;;;;;;;2.33;1.27;;;22.30;28.70;;;;;;5074589;28;20653;-54
2024/01/28 08:04:50;;;;;;;1.60;1.27;;;22.30;28.70;;;;;;5075023;28;20214;-56
2024/01/28 08:07:19;;;;;;;1.60;1.20;;;22.30;28.80;;;;;;5074416;28;20187;-56
2024/01/28 08:09:45;;;;;;;2.72;1.50;;;22.30;28.80;;;;;;5074669;28;20309;-54
2024/01/28 08:12:12;;;;;;;1.75;1.20;;;22.30;28.80;;;;;;5074443;28;20191;-56
2024/01/28 08:14:39;;;;;;;3.22;1.30;;;22.30;28.80;;;;;;5074403;28;20231;-56
2024/01/28 08:17:08;;;;;;;2.97;1.30;;;22.30;28.70;;;;;;5074273;28;20283;-54
2024/01/28 08:19:36;;;;;;;2.60;1.50;;;22.40;28.80;;;;;;5074415;28;20211;-50
2024/01/28 08:22:03;;;;;;;2.08;1.30;;;22.40;28.80;;;;;;5074206;28;20195;-56
2024/01/28 08:24:33;;;;;;;2.42;1.50;;;22.40;28.80;;;;;;5074292;28;20229;-55
2024/01/28 08:27:00;;;;;;;1.30;1.10;;;22.40;29.30;;;;;;5074301;28;20191;-55
2024/01/28 08:29:27;;;;;;;2.95;1.30;;;22.40;28.80;;;;;;5073786;28;20770;-57
2024/01/28 08:31:54;;;;;;;1.50;1.40;;;22.40;28.80;;;;;;5074001;28;20198;-55
2024/01/28 08:34:21;;;;;;;1.65;1.23;;;22.40;28.80;;;;;;5074292;28;20230;-57
2024/01/28 08:36:47;;;;;;;3.45;1.60;;;22.40;28.80;;;;;;5073521;28;20741;-54
2024/01/28 08:39:14;;;;;;;2.38;1.27;;;22.40;28.80;;;;;;5074233;28;20219;-57
2024/01/28 08:41:43;;;;;;;1.80;1.30;;;22.40;28.80;;;;;;5073994;28;20270;-55
2024/01/28 08:44:12;;;;;;;4.07;1.40;;;22.40;28.80;;;;;;5073709;28;20242;-55
2024/01/28 08:46:40;;;;;;;3.47;1.67;;;22.40;28.80;;;;;;5073896;28;20190;-55
2024/01/28 08:49:07;;;;;;;2.42;1.63;;;22.30;28.80;;;;;;5074023;28;20215;-56
2024/01/28 08:51:34;;;;;;;1.75;1.50;;;22.30;28.90;;;;;;5073483;28;20191;-57
2024/01/28 08:54:02;;;;;;;2.60;1.60;;;22.20;28.90;;;;;;5073477;28;20712;-56
2024/01/28 08:56:28;;;;;;;2.80;1.50;;;22.30;29.00;;;;;;5073788;28;20270;-57
2024/01/28 08:58:57;;;;;;;1.92;1.40;;;22.30;29.00;;;;;;5072803;28;20305;-57
2024/01/28 09:01:24;;;;;;;2.10;1.50;;;22.30;29.10;;;;;;5073757;28;20195;-54
2024/01/28 09:03:51;;;;;;;2.70;1.60;;;22.30;29.10;;;;;;5073704;28;20218;-52
2024/01/28 09:06:18;;;;;;;2.70;1.85;;;22.30;29.10;;;;;;5073177;28;20187;-57
2024/01/28 09:08:45;;;;;;;2.03;1.38;;;22.30;29.10;;;;;;5073516;28;20638;-55
2024/01/28 09:11:12;;;;;;;1.95;1.42;;;22.30;29.10;;;;;;5073169;28;20564;-49
2024/01/28 09:13:39;;;;;;;1.98;1.50;;;22.30;29.10;;;;;;5073028;28;20912;-55
2024/01/28 09:16:07;;;;;;;5.03;1.58;;;22.30;29.20;;;;;;5072827;28;20314;-54
2024/01/28 09:18:34;;;;;;;2.47;1.42;;;22.40;29.20;;;;;;5073574;28;20218;-52
2024/01/28 09:21:01;;;;;;;2.05;1.50;;;22.40;29.70;;;;;;5073157;28;20194;-56
2024/01/28 09:23:28;;;;;;;2.97;1.55;;;22.40;29.70;;;;;;5073182;28;20557;-56
2024/01/28 09:25:55;;;;;;;1.98;1.30;;;22.40;29.10;;;;;;5073208;28;20194;-54
2024/01/28 09:28:22;;;;;;;2.63;1.60;;;22.40;29.20;;;;;;5072487;28;20183;-52
2024/01/28 09:30:50;;;;;;;1.98;1.20;;;22.40;29.20;;;;;;5072899;28;20195;-57
2024/01/28 09:33:18;;;;;;;1.88;1.38;;;22.40;29.20;;;;;;5073035;28;20187;-54
2024/01/28 09:35:46;;;;;;;1.98;1.63;;;22.40;29.20;;;;;;5072638;28;20602;-51
2024/01/28 09:38:13;;;;;;;3.08;1.60;;;22.40;29.20;;;;;;5072970;28;20244;-53
2024/01/28 09:40:40;;;;;;;2.47;1.50;;;22.40;29.30;;;;;;5072979;28;20290;-54
2024/01/28 09:43:15;;;;;;;2.78;1.65;;;22.40;29.10;;;;;;5072616;28;20304;-55
2024/01/28 09:45:42;;;;;;;2.90;1.40;;;22.40;29.20;;;;;;5072839;28;20192;-55
2024/01/28 09:48:09;;;;;;;2.13;1.65;;;22.40;29.20;;;;;;5072455;28;20285;-56
2024/01/28 09:50:39;;;;;;;1.88;1.42;;;22.30;29.30;;;;;;5072679;28;20218;-53
2024/01/28 09:53:06;;;;;;;1.98;1.30;;;22.30;29.90;;;;;;5072403;28;20191;-52
2024/01/28 09:55:33;;;;;;;2.67;1.67;;;22.30;29.50;;;;;;5072886;28;20291;-54
2024/01/28 09:58:00;;;;;;;2.20;1.80;;;22.30;29.50;;;;;;5072204;28;20190;-56
2024/01/28 10:00:27;;;;;;;1.88;1.40;;;22.30;29.50;;;;;;5072692;28;20305;-55
2024/01/28 10:02:54;;;;;;;2.90;1.60;;;22.30;29.50;;;;;;5072617;28;20267;-53
2024/01/28 10:05:20;;;;;;;3.33;1.40;;;22.30;29.50;;;;;;5072411;28;20218;-50
2024/01/28 10:07:50;;;;;;;1.73;1.35;;;22.30;29.60;;;;;;5072130;28;20644;-56
2024/01/28 10:10:17;;;;;;;2.30;1.50;;;22.30;29.60;;;;;;5071618;28;20215;-54
2024/01/28 10:12:46;;;;;;;2.35;1.50;;;22.30;29.60;;;;;;5071815;28;20205;-55
2024/01/28 10:15:17;;;;;;;2.42;1.52;;;22.40;29.70;;;;;;5072210;28;20234;-54
2024/01/28 10:17:47;;;;;;;3.03;1.65;;;22.40;29.70;;;;;;5071988;28;20330;-57
2024/01/28 10:20:15;;;;;;;2.70;1.80;;;22.40;29.70;;;;;;5072072;28;20268;-54
2024/01/28 10:22:42;;;;;;;3.05;1.63;;;22.40;29.80;;;;;;5072393;28;20193;-53
2024/01/28 10:25:12;;;;;;;2.60;1.75;;;22.40;30.20;;;;;;5072490;28;20307;-55
2024/01/28 10:27:40;;;;;;;1.83;1.60;;;22.40;29.80;;;;;;5071934;28;20278;-52
2024/01/28 10:30:08;;;;;;;2.58;1.60;;;22.40;29.80;;;;;;5072466;28;20215;-57
2024/01/28 10:32:35;;;;;;;2.40;1.42;;;22.40;29.80;;;;;;5072317;28;20195;-52
2024/01/28 10:35:02;;;;;;;2.40;1.48;;;22.40;29.80;;;;;;5071716;28;20234;-52
2024/01/28 10:37:33;;;;;;;2.13;1.63;;;22.40;29.80;;;;;;5072123;28;20495;-57
2024/01/28 10:40:04;;;;;;;2.33;1.50;;;22.50;30.40;;;;;;5072379;28;20240;-56
2024/01/28 10:42:38;;;;;;;2.33;1.60;;;22.50;29.90;;;;;;5071886;28;20244;-55
2024/01/28 10:45:07;;;;;;;2.42;1.60;;;22.50;29.90;;;;;;5071954;28;20222;-55
2024/01/28 10:47:36;;;;;;;2.38;1.50;;;22.40;29.80;;;;;;5071833;28;20698;-53
2024/01/28 10:50:07;;;;;;;2.55;1.50;;;22.40;29.90;;;;;;5071916;28;20277;-56
2024/01/28 10:52:35;;;;;;;1.88;1.50;;;22.40;30.00;;;;;;5071803;28;20194;-57
2024/01/28 10:55:03;;;;;;;2.35;1.58;;;22.30;30.00;;;;;;5072142;28;20307;-56
2024/01/28 10:57:33;;;;;;;2.67;1.55;;;22.30;30.00;;;;;;5071719;28;20191;-53
2024/01/28 11:00:00;;;;;;;2.10;1.55;;;22.30;30.10;;;;;;5071807;28;20219;-52
2024/01/28 11:02:28;;;;;;;1.80;1.35;;;22.30;30.90;;;;;;5072038;28;20241;-57
2024/01/28 11:04:55;;;;;;;1.95;1.58;;;22.30;30.20;;;;;;5071773;28;20306;-53
2024/01/28 11:07:24;;;;;;;2.00;1.52;;;22.30;30.20;;;;;;5071975;28;20199;-56
2024/01/28 11:09:52;;;;;;;2.65;1.60;;;22.40;30.30;;;;;;5071810;28;20310;-54
2024/01/28 11:12:19;;;;;;;2.53;1.70;;;22.40;30.30;;;;;;5071597;28;20217;-56
2024/01/28 11:14:47;;;;;;;2.10;1.33;;;22.40;30.30;;;;;;5071927;28;20230;-57
2024/01/28 11:17:13;;;;;;;2.10;1.83;;;22.40;30.40;;;;;;5071688;28;20262;-54
2024/01/28 11:19:40;;;;;;;2.55;1.65;;;22.40;30.40;;;;;;5071682;28;20215;-57
2024/01/28 11:22:14;;;;;;;2.05;1.77;;;22.40;30.40;;;;;;5074327;28;20619;-55
2024/01/28 11:24:53;;;;;;;2.70;1.70;;;22.40;30.40;;;;;;5075438;28;20246;-55
2024/01/28 11:27:20;;;;;;;2.13;1.33;;;22.40;30.40;;;;;;5075098;28;20223;-51
2024/01/28 11:29:48;;;;;;;2.97;2.00;;;22.50;30.50;;;;;;5075264;28;20705;-57
2024/01/28 11:32:16;;;;;;;2.42;1.75;;;22.50;30.50;;;;;;5075398;28;20278;-55
2024/01/28 11:34:45;;;;;;;2.55;1.50;;;22.50;30.50;;;;;;5075024;28;20276;-53
2024/01/28 11:37:15;;;;;;;1.95;1.63;;;22.50;30.70;;;;;;5075353;28;20277;-54
2024/01/28 11:39:48;;;;;;;1.65;1.38;;;22.50;30.60;;;;;;5075361;28;20214;-56
2024/01/28 11:42:14;;;;;;;2.45;1.70;;;22.50;30.70;;;;;;5074949;28;20272;-55
2024/01/28 11:44:43;;;;;;;2.30;1.90;;;22.50;30.60;;;;;;5075304;28;20297;-54
2024/01/28 11:47:13;;;;;;;2.25;1.80;;;22.50;30.70;;;;;;5075255;28;20290;-53
2024/01/28 11:49:40;;;;;;;2.20;1.80;;;22.50;30.70;;;;;;5074837;28;20246;-50
2024/01/28 11:52:08;;;;;;;1.65;1.55;;;22.50;30.70;;;;;;5074723;28;20187;-56
2024/01/28 11:54:36;;;;;;;2.47;1.60;;;22.40;30.70;;;;;;5074645;28;20750;-55
2024/01/28 11:57:03;;;;;;;2.83;1.80;;;22.40;30.80;;;;;;5074561;28;20269;-53
2024/01/28 11:59:33;;;;;;;2.15;1.67;;;22.40;30.90;;;;;;5074756;28;20305;-52
2024/01/28 12:02:00;;;;;;;2.28;1.80;;;22.30;30.90;;;;;;5074930;28;20240;-57
2024/01/28 12:04:28;;;;;;;4.03;1.60;;;22.30;31.10;;;;;;5074500;28;20211;-52
2024/01/28 12:06:55;;;;;;;1.65;1.50;;;22.40;31.20;;;;;;5074806;28;20645;-54
2024/01/28 12:09:22;;;;;;;2.90;2.17;;;22.40;31.20;;;;;;5074443;28;20579;-56
2024/01/28 12:11:49;;;;;;;2.35;1.70;;;22.40;31.20;;;;;;5074084;28;20657;-52
2024/01/28 12:14:16;;;;;;;2.35;1.80;;;22.40;31.20;;;;;;5074318;28;20763;-56
2024/01/28 12:16:44;;;;;;;2.70;1.75;;;22.40;31.20;;;;;;5074200;28;20319;-54
2024/01/28 12:19:13;;;;;;;2.20;1.52;;;22.40;31.30;;;;;;5074426;28;20211;-55
2024/01/28 12:21:42;;;;;;;2.38;1.80;;;22.40;31.30;;;;;;5074533;28;20187;-54
2024/01/28 12:24:10;;;;;;;2.15;1.80;;;22.40;31.30;;;;;;5074123;28;20696;-50
2024/01/28 12:26:37;;;;;;;3.35;1.90;;;22.50;32.10;;;;;;5074010;28;20298;-57
2024/01/28 12:29:04;;;;;;;3.13;1.75;;;22.50;31.40;;;;;;5074611;28;20250;-56
2024/01/28 12:31:31;;;;;;;2.25;1.75;;;22.50;31.40;;;;;;5074336;28;20614;-53
2024/01/28 12:33:58;;;;;;;2.20;1.70;;;22.50;31.50;;;;;;5072898;28;20249;-55
2024/01/28 12:36:25;;;;;;;3.95;1.50;;;22.50;31.50;;;;;;5074171;28;20305;-50
2024/01/28 12:38:53;;;;;;;2.63;1.80;;;22.50;31.60;;;;;;5074228;28;20703;-51
2024/01/28 12:41:20;;;;;;;3.22;1.80;;;22.50;31.60;;;;;;5073873;28;20268;-54
2024/01/28 12:43:48;;;;;;;3.85;1.88;;;22.50;31.60;;;;;;5074083;28;20286;-55
2024/01/28 12:46:16;;;;;;;4.07;1.83;;;22.60;31.70;;;;;;5073971;28;20198;-55
2024/01/28 12:48:43;;;;;;;2.60;2.03;;;22.50;31.60;;;;;;5073646;28;20277;-54